sensor_id;sensor_type;location;lat;lon;timestamp;P1;durP1;ratioP1;P2;durP2;ratioP2
27612;SDS011;15036;48.094;-1.690;2023-06-01T00:00:49;22.90;;;12.32;;
27612;SDS011;15036;48.094;-1.690;2023-06-01T00:03:14;23.05;;;12.48;;
27612;SDS011;15036;48.094;-1.690;2023-06-01T00:05:40;24.17;;;12.88;;
27612;SDS011;15036;48.094;-1.690;2023-06-01T00:08:05;24.88;;;12.60;;
27612;SDS011;15036;48.094;-1.690;2023-06-01T00:10:31;20.80;;;11.82;;
27612;SDS011;15036;48.094;-1.690;2023-06-01T00:12:57;20.65;;;12.98;;
27612;SDS011;15036;48.094;-1.690;2023-06-01T00:15:23;27.50;;;12.27;;
27612;SDS011;15036;48.094;-1.690;2023-06-01T00:17:48;24.15;;;11.93;;
27612;SDS011;15036;48.094;-1.690;2023-06-01T00:20:16;20.90;;;12.30;;
27612;SDS011;15036;48.094;-1.690;2023-06-01T00:22:42;26.02;;;12.10;;
27612;SDS011;15036;48.094;-1.690;2023-06-01T00:25:08;22.63;;;12.23;;
27612;SDS011;15036;48.094;-1.690;2023-06-01T00:27:34;21.45;;;11.90;;
27612;SDS011;15036;48.094;-1.690;2023-06-01T00:29:59;21.15;;;12.15;;
27612;SDS011;15036;48.094;-1.690;2023-06-01T00:32:25;26.02;;;12.40;;
27612;SDS011;15036;48.094;-1.690;2023-06-01T00:34:50;28.15;;;11.75;;
27612;SDS011;15036;48.094;-1.690;2023-06-01T00:37:16;28.20;;;12.82;;
27612;SDS011;15036;48.094;-1.690;2023-06-01T00:39:41;24.92;;;12.30;;
27612;SDS011;15036;48.094;-1.690;2023-06-01T00:42:06;24.88;;;12.27;;
27612;SDS011;15036;48.094;-1.690;2023-06-01T00:44:32;23.83;;;12.70;;
27612;SDS011;15036;48.094;-1.690;2023-06-01T00:46:57;24.55;;;11.82;;
27612;SDS011;15036;48.094;-1.690;2023-06-01T00:49:24;19.85;;;11.50;;
27612;SDS011;15036;48.094;-1.690;2023-06-01T00:51:50;24.48;;;12.98;;
27612;SDS011;15036;48.094;-1.690;2023-06-01T00:54:16;22.88;;;12.77;;
27612;SDS011;15036;48.094;-1.690;2023-06-01T00:56:41;24.10;;;12.55;;
27612;SDS011;15036;48.094;-1.690;2023-06-01T00:59:07;23.75;;;12.85;;
27612;SDS011;15036;48.094;-1.690;2023-06-01T01:01:32;24.27;;;12.93;;
27612;SDS011;15036;48.094;-1.690;2023-06-01T01:03:58;28.17;;;13.50;;
27612;SDS011;15036;48.094;-1.690;2023-06-01T01:12:05;28.48;;;12.93;;
27612;SDS011;15036;48.094;-1.690;2023-06-01T01:14:50;28.05;;;13.07;;
27612;SDS011;15036;48.094;-1.690;2023-06-01T01:20:08;25.75;;;12.27;;
27612;SDS011;15036;48.094;-1.690;2023-06-01T01:22:41;23.48;;;13.82;;
27612;SDS011;15036;48.094;-1.690;2023-06-01T01:28:31;29.63;;;13.32;;
27612;SDS011;15036;48.094;-1.690;2023-06-01T01:31:12;26.08;;;13.73;;
27612;SDS011;15036;48.094;-1.690;2023-06-01T01:33:40;26.00;;;14.40;;
27612;SDS011;15036;48.094;-1.690;2023-06-01T01:36:06;30.98;;;13.90;;
27612;SDS011;15036;48.094;-1.690;2023-06-01T01:38:34;23.67;;;13.25;;
27612;SDS011;15036;48.094;-1.690;2023-06-01T01:41:00;25.55;;;13.73;;
27612;SDS011;15036;48.094;-1.690;2023-06-01T01:43:26;24.98;;;14.30;;
27612;SDS011;15036;48.094;-1.690;2023-06-01T01:45:54;27.55;;;14.35;;
27612;SDS011;15036;48.094;-1.690;2023-06-01T01:48:43;25.80;;;14.85;;
27612;SDS011;15036;48.094;-1.690;2023-06-01T01:51:17;28.58;;;14.35;;
27612;SDS011;15036;48.094;-1.690;2023-06-01T01:53:47;28.88;;;15.05;;
27612;SDS011;15036;48.094;-1.690;2023-06-01T01:56:16;27.33;;;15.40;;
27612;SDS011;15036;48.094;-1.690;2023-06-01T01:58:43;24.65;;;14.50;;
27612;SDS011;15036;48.094;-1.690;2023-06-01T02:01:10;31.00;;;16.52;;
27612;SDS011;15036;48.094;-1.690;2023-06-01T02:03:37;29.63;;;15.85;;
27612;SDS011;15036;48.094;-1.690;2023-06-01T02:06:02;30.35;;;16.20;;
27612;SDS011;15036;48.094;-1.690;2023-06-01T02:08:27;31.42;;;16.98;;
27612;SDS011;15036;48.094;-1.690;2023-06-01T02:10:53;27.08;;;15.25;;
27612;SDS011;15036;48.094;-1.690;2023-06-01T02:13:19;32.78;;;16.55;;
27612;SDS011;15036;48.094;-1.690;2023-06-01T02:15:44;29.45;;;15.88;;
27612;SDS011;15036;48.094;-1.690;2023-06-01T02:18:10;33.40;;;17.20;;
27612;SDS011;15036;48.094;-1.690;2023-06-01T02:20:36;34.28;;;18.05;;
27612;SDS011;15036;48.094;-1.690;2023-06-01T02:23:01;30.25;;;17.55;;
27612;SDS011;15036;48.094;-1.690;2023-06-01T02:25:27;34.53;;;18.15;;
27612;SDS011;15036;48.094;-1.690;2023-06-01T02:27:52;30.85;;;18.13;;
27612;SDS011;15036;48.094;-1.690;2023-06-01T02:30:17;35.85;;;19.27;;
27612;SDS011;15036;48.094;-1.690;2023-06-01T02:32:43;30.85;;;18.45;;
27612;SDS011;15036;48.094;-1.690;2023-06-01T02:35:10;32.78;;;19.90;;
27612;SDS011;15036;48.094;-1.690;2023-06-01T02:37:35;33.10;;;19.27;;
27612;SDS011;15036;48.094;-1.690;2023-06-01T02:40:01;34.58;;;18.75;;
27612;SDS011;15036;48.094;-1.690;2023-06-01T02:42:27;34.60;;;19.98;;
27612;SDS011;15036;48.094;-1.690;2023-06-01T02:44:52;32.40;;;20.25;;
27612;SDS011;15036;48.094;-1.690;2023-06-01T02:47:17;31.33;;;19.02;;
27612;SDS011;15036;48.094;-1.690;2023-06-01T02:49:43;39.85;;;20.95;;
27612;SDS011;15036;48.094;-1.690;2023-06-01T02:52:08;33.13;;;21.02;;
27612;SDS011;15036;48.094;-1.690;2023-06-01T02:54:33;33.65;;;20.45;;
27612;SDS011;15036;48.094;-1.690;2023-06-01T02:56:59;34.55;;;20.00;;
27612;SDS011;15036;48.094;-1.690;2023-06-01T02:59:24;36.92;;;22.23;;
27612;SDS011;15036;48.094;-1.690;2023-06-01T03:01:50;37.90;;;22.58;;
27612;SDS011;15036;48.094;-1.690;2023-06-01T03:04:15;37.90;;;22.42;;
27612;SDS011;15036;48.094;-1.690;2023-06-01T03:06:42;32.15;;;21.80;;
27612;SDS011;15036;48.094;-1.690;2023-06-01T03:09:08;37.50;;;23.90;;
27612;SDS011;15036;48.094;-1.690;2023-06-01T03:11:40;38.00;;;23.53;;
27612;SDS011;15036;48.094;-1.690;2023-06-01T03:14:06;38.58;;;24.02;;
27612;SDS011;15036;48.094;-1.690;2023-06-01T03:16:32;41.80;;;24.58;;
27612;SDS011;15036;48.094;-1.690;2023-06-01T03:18:57;40.08;;;23.60;;
27612;SDS011;15036;48.094;-1.690;2023-06-01T03:21:23;37.83;;;24.17;;
27612;SDS011;15036;48.094;-1.690;2023-06-01T03:23:49;42.20;;;25.38;;
27612;SDS011;15036;48.094;-1.690;2023-06-01T03:26:14;38.70;;;25.50;;
27612;SDS011;15036;48.094;-1.690;2023-06-01T03:28:43;37.97;;;25.10;;
27612;SDS011;15036;48.094;-1.690;2023-06-01T03:31:09;42.35;;;25.88;;
27612;SDS011;15036;48.094;-1.690;2023-06-01T03:33:36;42.00;;;25.88;;
27612;SDS011;15036;48.094;-1.690;2023-06-01T03:36:02;38.72;;;25.88;;
27612;SDS011;15036;48.094;-1.690;2023-06-01T03:38:29;40.33;;;26.55;;
27612;SDS011;15036;48.094;-1.690;2023-06-01T03:40:55;47.92;;;26.45;;
27612;SDS011;15036;48.094;-1.690;2023-06-01T03:43:20;41.58;;;26.25;;
27612;SDS011;15036;48.094;-1.690;2023-06-01T03:45:46;40.38;;;25.38;;
27612;SDS011;15036;48.094;-1.690;2023-06-01T03:48:11;41.85;;;26.23;;
27612;SDS011;15036;48.094;-1.690;2023-06-01T03:50:36;40.60;;;26.60;;
27612;SDS011;15036;48.094;-1.690;2023-06-01T03:53:02;43.38;;;28.15;;
27612;SDS011;15036;48.094;-1.690;2023-06-01T03:55:27;41.92;;;27.70;;
27612;SDS011;15036;48.094;-1.690;2023-06-01T03:57:54;41.75;;;28.13;;
27612;SDS011;15036;48.094;-1.690;2023-06-01T04:00:20;44.95;;;28.13;;
27612;SDS011;15036;48.094;-1.690;2023-06-01T04:02:52;40.30;;;27.77;;
27612;SDS011;15036;48.094;-1.690;2023-06-01T04:05:19;42.10;;;27.90;;
27612;SDS011;15036;48.094;-1.690;2023-06-01T04:07:46;41.60;;;28.50;;
27612;SDS011;15036;48.094;-1.690;2023-06-01T04:10:13;44.78;;;27.77;;
27612;SDS011;15036;48.094;-1.690;2023-06-01T04:12:48;45.55;;;28.92;;
27612;SDS011;15036;48.094;-1.690;2023-06-01T04:15:15;43.97;;;29.48;;
27612;SDS011;15036;48.094;-1.690;2023-06-01T04:17:42;42.25;;;28.40;;
27612;SDS011;15036;48.094;-1.690;2023-06-01T04:20:09;37.08;;;27.98;;
27612;SDS011;15036;48.094;-1.690;2023-06-01T04:22:39;30.65;;;20.42;;
27612;SDS011;15036;48.094;-1.690;2023-06-01T04:25:06;43.50;;;28.45;;
27612;SDS011;15036;48.094;-1.690;2023-06-01T04:27:33;45.63;;;28.83;;
27612;SDS011;15036;48.094;-1.690;2023-06-01T04:30:05;45.50;;;27.17;;
27612;SDS011;15036;48.094;-1.690;2023-06-01T04:32:33;44.20;;;28.05;;
27612;SDS011;15036;48.094;-1.690;2023-06-01T04:35:00;39.20;;;27.35;;
27612;SDS011;15036;48.094;-1.690;2023-06-01T04:37:30;41.63;;;27.45;;
27612;SDS011;15036;48.094;-1.690;2023-06-01T04:39:59;41.58;;;27.90;;
27612;SDS011;15036;48.094;-1.690;2023-06-01T04:42:25;41.60;;;28.48;;
27612;SDS011;15036;48.094;-1.690;2023-06-01T04:44:50;40.53;;;27.38;;
27612;SDS011;15036;48.094;-1.690;2023-06-01T04:47:16;38.38;;;27.05;;
27612;SDS011;15036;48.094;-1.690;2023-06-01T04:49:42;41.08;;;27.80;;
27612;SDS011;15036;48.094;-1.690;2023-06-01T04:52:08;44.58;;;27.95;;
27612;SDS011;15036;48.094;-1.690;2023-06-01T04:54:35;45.58;;;26.85;;
27612;SDS011;15036;48.094;-1.690;2023-06-01T04:57:01;43.13;;;27.30;;
27612;SDS011;15036;48.094;-1.690;2023-06-01T04:59:27;41.75;;;27.80;;
27612;SDS011;15036;48.094;-1.690;2023-06-01T05:01:52;38.67;;;28.60;;
27612;SDS011;15036;48.094;-1.690;2023-06-01T05:04:18;39.75;;;26.42;;
27612;SDS011;15036;48.094;-1.690;2023-06-01T05:06:43;42.92;;;27.25;;
27612;SDS011;15036;48.094;-1.690;2023-06-01T05:09:08;41.58;;;27.25;;
27612;SDS011;15036;48.094;-1.690;2023-06-01T05:11:34;40.90;;;27.77;;
27612;SDS011;15036;48.094;-1.690;2023-06-01T05:13:59;41.25;;;26.80;;
27612;SDS011;15036;48.094;-1.690;2023-06-01T05:16:27;40.47;;;26.98;;
27612;SDS011;15036;48.094;-1.690;2023-06-01T05:18:53;37.55;;;27.08;;
27612;SDS011;15036;48.094;-1.690;2023-06-01T05:21:19;42.25;;;27.00;;
27612;SDS011;15036;48.094;-1.690;2023-06-01T05:23:44;42.42;;;27.52;;
27612;SDS011;15036;48.094;-1.690;2023-06-01T05:26:09;40.17;;;26.67;;
27612;SDS011;15036;48.094;-1.690;2023-06-01T05:28:35;35.70;;;25.52;;
27612;SDS011;15036;48.094;-1.690;2023-06-01T05:31:03;36.33;;;25.48;;
27612;SDS011;15036;48.094;-1.690;2023-06-01T05:33:29;37.97;;;25.55;;
27612;SDS011;15036;48.094;-1.690;2023-06-01T05:35:54;41.92;;;26.13;;
27612;SDS011;15036;48.094;-1.690;2023-06-01T05:38:20;37.20;;;26.40;;
27612;SDS011;15036;48.094;-1.690;2023-06-01T05:40:45;34.55;;;25.95;;
27612;SDS011;15036;48.094;-1.690;2023-06-01T05:43:11;37.00;;;25.70;;
27612;SDS011;15036;48.094;-1.690;2023-06-01T05:45:36;44.15;;;25.33;;
27612;SDS011;15036;48.094;-1.690;2023-06-01T05:48:02;41.40;;;26.67;;
27612;SDS011;15036;48.094;-1.690;2023-06-01T05:50:28;38.70;;;25.90;;
27612;SDS011;15036;48.094;-1.690;2023-06-01T05:52:53;36.13;;;25.73;;
27612;SDS011;15036;48.094;-1.690;2023-06-01T05:55:19;36.15;;;25.65;;
27612;SDS011;15036;48.094;-1.690;2023-06-01T05:57:44;34.47;;;24.45;;
27612;SDS011;15036;48.094;-1.690;2023-06-01T06:00:10;42.13;;;26.95;;
27612;SDS011;15036;48.094;-1.690;2023-06-01T06:02:37;37.22;;;26.00;;
27612;SDS011;15036;48.094;-1.690;2023-06-01T06:05:03;38.40;;;25.10;;
27612;SDS011;15036;48.094;-1.690;2023-06-01T06:07:29;32.42;;;24.15;;
27612;SDS011;15036;48.094;-1.690;2023-06-01T06:09:55;36.63;;;26.27;;
27612;SDS011;15036;48.094;-1.690;2023-06-01T06:12:20;38.40;;;24.90;;
27612;SDS011;15036;48.094;-1.690;2023-06-01T06:14:46;35.42;;;26.10;;
27612;SDS011;15036;48.094;-1.690;2023-06-01T06:17:11;40.22;;;25.35;;
27612;SDS011;15036;48.094;-1.690;2023-06-01T06:19:36;41.40;;;26.90;;
27612;SDS011;15036;48.094;-1.690;2023-06-01T06:22:02;43.30;;;26.35;;
27612;SDS011;15036;48.094;-1.690;2023-06-01T06:24:27;37.42;;;24.75;;
27612;SDS011;15036;48.094;-1.690;2023-06-01T06:26:53;37.30;;;26.08;;
27612;SDS011;15036;48.094;-1.690;2023-06-01T06:29:18;34.58;;;24.95;;
27612;SDS011;15036;48.094;-1.690;2023-06-01T06:31:44;37.53;;;25.42;;
27612;SDS011;15036;48.094;-1.690;2023-06-01T06:34:11;34.38;;;25.33;;
27612;SDS011;15036;48.094;-1.690;2023-06-01T06:36:37;33.30;;;24.05;;
27612;SDS011;15036;48.094;-1.690;2023-06-01T06:39:02;40.33;;;25.73;;
27612;SDS011;15036;48.094;-1.690;2023-06-01T06:41:28;35.80;;;24.63;;
27612;SDS011;15036;48.094;-1.690;2023-06-01T06:43:53;40.05;;;24.70;;
27612;SDS011;15036;48.094;-1.690;2023-06-01T06:46:18;35.95;;;24.90;;
27612;SDS011;15036;48.094;-1.690;2023-06-01T06:48:44;38.90;;;25.65;;
27612;SDS011;15036;48.094;-1.690;2023-06-01T06:51:09;33.42;;;25.20;;
27612;SDS011;15036;48.094;-1.690;2023-06-01T06:53:34;30.67;;;23.80;;
27612;SDS011;15036;48.094;-1.690;2023-06-01T06:56:00;33.75;;;23.63;;
27612;SDS011;15036;48.094;-1.690;2023-06-01T06:58:25;38.15;;;23.42;;
27612;SDS011;15036;48.094;-1.690;2023-06-01T07:00:51;38.00;;;24.85;;
27612;SDS011;15036;48.094;-1.690;2023-06-01T07:03:16;34.88;;;24.95;;
27612;SDS011;15036;48.094;-1.690;2023-06-01T07:05:42;35.72;;;24.48;;
27612;SDS011;15036;48.094;-1.690;2023-06-01T07:08:10;32.92;;;23.75;;
27612;SDS011;15036;48.094;-1.690;2023-06-01T07:10:35;34.10;;;23.63;;
27612;SDS011;15036;48.094;-1.690;2023-06-01T07:13:01;33.08;;;23.25;;
27612;SDS011;15036;48.094;-1.690;2023-06-01T07:15:26;34.10;;;25.35;;
27612;SDS011;15036;48.094;-1.690;2023-06-01T07:17:52;30.63;;;22.92;;
27612;SDS011;15036;48.094;-1.690;2023-06-01T07:20:17;35.35;;;23.10;;
27612;SDS011;15036;48.094;-1.690;2023-06-01T07:22:43;38.95;;;24.33;;
27612;SDS011;15036;48.094;-1.690;2023-06-01T07:25:08;37.35;;;23.98;;
27612;SDS011;15036;48.094;-1.690;2023-06-01T07:27:35;34.78;;;24.38;;
27612;SDS011;15036;48.094;-1.690;2023-06-01T07:30:02;33.20;;;23.88;;
27612;SDS011;15036;48.094;-1.690;2023-06-01T07:32:28;33.50;;;23.73;;
27612;SDS011;15036;48.094;-1.690;2023-06-01T07:34:54;28.25;;;22.60;;
27612;SDS011;15036;48.094;-1.690;2023-06-01T07:37:23;34.10;;;22.10;;
27612;SDS011;15036;48.094;-1.690;2023-06-01T07:39:49;33.63;;;23.15;;
27612;SDS011;15036;48.094;-1.690;2023-06-01T07:42:14;32.92;;;22.52;;
27612;SDS011;15036;48.094;-1.690;2023-06-01T07:44:40;30.05;;;22.80;;
27612;SDS011;15036;48.094;-1.690;2023-06-01T07:47:05;32.10;;;21.02;;
27612;SDS011;15036;48.094;-1.690;2023-06-01T07:49:31;32.10;;;23.02;;
27612;SDS011;15036;48.094;-1.690;2023-06-01T07:51:56;35.50;;;22.40;;
27612;SDS011;15036;48.094;-1.690;2023-06-01T07:54:23;30.30;;;21.50;;
27612;SDS011;15036;48.094;-1.690;2023-06-01T07:56:49;25.08;;;20.10;;
27612;SDS011;15036;48.094;-1.690;2023-06-01T07:59:14;27.60;;;20.45;;
27612;SDS011;15036;48.094;-1.690;2023-06-01T08:01:40;25.08;;;19.88;;
27612;SDS011;15036;48.094;-1.690;2023-06-01T08:04:06;24.67;;;18.80;;
27612;SDS011;15036;48.094;-1.690;2023-06-01T08:06:31;25.80;;;19.70;;
27612;SDS011;15036;48.094;-1.690;2023-06-01T08:09:00;26.13;;;19.83;;
27612;SDS011;15036;48.094;-1.690;2023-06-01T08:11:26;29.35;;;20.98;;
27612;SDS011;15036;48.094;-1.690;2023-06-01T08:13:52;31.05;;;19.30;;
27612;SDS011;15036;48.094;-1.690;2023-06-01T08:16:17;25.30;;;18.33;;
27612;SDS011;15036;48.094;-1.690;2023-06-01T08:18:42;25.75;;;18.58;;
27612;SDS011;15036;48.094;-1.690;2023-06-01T08:21:08;27.02;;;18.63;;
27612;SDS011;15036;48.094;-1.690;2023-06-01T08:23:34;25.38;;;19.45;;
27612;SDS011;15036;48.094;-1.690;2023-06-01T08:26:00;35.67;;;18.63;;
27612;SDS011;15036;48.094;-1.690;2023-06-01T08:28:25;26.63;;;18.80;;
27612;SDS011;15036;48.094;-1.690;2023-06-01T08:30:51;23.58;;;17.40;;
27612;SDS011;15036;48.094;-1.690;2023-06-01T08:33:16;24.10;;;16.40;;
27612;SDS011;15036;48.094;-1.690;2023-06-01T08:35:41;23.52;;;17.77;;
27612;SDS011;15036;48.094;-1.690;2023-06-01T08:38:07;22.23;;;17.20;;
27612;SDS011;15036;48.094;-1.690;2023-06-01T08:40:32;27.42;;;18.02;;
27612;SDS011;15036;48.094;-1.690;2023-06-01T08:45:49;20.20;;;15.90;;
27612;SDS011;15036;48.094;-1.690;2023-06-01T08:48:17;23.33;;;17.42;;
27612;SDS011;15036;48.094;-1.690;2023-06-01T08:50:45;22.67;;;16.27;;
27612;SDS011;15036;48.094;-1.690;2023-06-01T08:53:14;21.42;;;15.00;;
27612;SDS011;15036;48.094;-1.690;2023-06-01T08:55:44;26.08;;;17.05;;
27612;SDS011;15036;48.094;-1.690;2023-06-01T08:58:10;19.60;;;15.73;;
27612;SDS011;15036;48.094;-1.690;2023-06-01T09:00:37;22.48;;;17.40;;
27612;SDS011;15036;48.094;-1.690;2023-06-01T09:03:03;20.77;;;16.15;;
27612;SDS011;15036;48.094;-1.690;2023-06-01T09:05:29;26.20;;;16.85;;
27612;SDS011;15036;48.094;-1.690;2023-06-01T09:07:54;22.35;;;16.52;;
27612;SDS011;15036;48.094;-1.690;2023-06-01T09:10:23;21.85;;;14.80;;
27612;SDS011;15036;48.094;-1.690;2023-06-01T09:12:53;21.85;;;14.77;;
27612;SDS011;15036;48.094;-1.690;2023-06-01T09:15:19;17.98;;;14.23;;
27612;SDS011;15036;48.094;-1.690;2023-06-01T09:17:49;18.90;;;13.20;;
27612;SDS011;15036;48.094;-1.690;2023-06-01T09:20:22;20.25;;;13.18;;
27612;SDS011;15036;48.094;-1.690;2023-06-01T09:22:49;19.15;;;13.90;;
27612;SDS011;15036;48.094;-1.690;2023-06-01T09:25:15;16.60;;;13.20;;
27612;SDS011;15036;48.094;-1.690;2023-06-01T09:27:47;17.67;;;14.80;;
27612;SDS011;15036;48.094;-1.690;2023-06-01T09:30:16;22.42;;;15.32;;
27612;SDS011;15036;48.094;-1.690;2023-06-01T09:33:11;19.38;;;14.50;;
27612;SDS011;15036;48.094;-1.690;2023-06-01T09:35:44;18.80;;;13.50;;
27612;SDS011;15036;48.094;-1.690;2023-06-01T09:38:23;18.60;;;13.95;;
27612;SDS011;15036;48.094;-1.690;2023-06-01T09:41:02;17.15;;;13.02;;
27612;SDS011;15036;48.094;-1.690;2023-06-01T09:43:28;19.88;;;14.15;;
27612;SDS011;15036;48.094;-1.690;2023-06-01T09:48:34;18.23;;;12.98;;
27612;SDS011;15036;48.094;-1.690;2023-06-01T09:51:00;14.75;;;10.98;;
27612;SDS011;15036;48.094;-1.690;2023-06-01T09:53:26;13.77;;;10.43;;
27612;SDS011;15036;48.094;-1.690;2023-06-01T09:55:58;16.67;;;12.43;;
27612;SDS011;15036;48.094;-1.690;2023-06-01T09:58:25;17.52;;;12.75;;
27612;SDS011;15036;48.094;-1.690;2023-06-01T10:00:51;13.13;;;9.98;;
27612;SDS011;15036;48.094;-1.690;2023-06-01T10:03:18;15.55;;;10.98;;
27612;SDS011;15036;48.094;-1.690;2023-06-01T10:05:45;16.45;;;9.88;;
27612;SDS011;15036;48.094;-1.690;2023-06-01T10:08:11;12.98;;;10.73;;
27612;SDS011;15036;48.094;-1.690;2023-06-01T10:10:38;14.43;;;10.80;;
27612;SDS011;15036;48.094;-1.690;2023-06-01T10:13:04;10.88;;;9.40;;
27612;SDS011;15036;48.094;-1.690;2023-06-01T10:15:31;15.98;;;10.68;;
27612;SDS011;15036;48.094;-1.690;2023-06-01T10:17:57;13.75;;;9.65;;
27612;SDS011;15036;48.094;-1.690;2023-06-01T10:20:23;17.85;;;9.98;;
27612;SDS011;15036;48.094;-1.690;2023-06-01T10:22:49;16.80;;;11.73;;
27612;SDS011;15036;48.094;-1.690;2023-06-01T10:25:15;15.50;;;11.13;;
27612;SDS011;15036;48.094;-1.690;2023-06-01T10:27:45;15.52;;;10.80;;
27612;SDS011;15036;48.094;-1.690;2023-06-01T10:30:20;15.05;;;10.15;;
27612;SDS011;15036;48.094;-1.690;2023-06-01T10:32:46;12.45;;;9.45;;
27612;SDS011;15036;48.094;-1.690;2023-06-01T10:38:29;12.60;;;10.60;;
27612;SDS011;15036;48.094;-1.690;2023-06-01T10:40:48;13.23;;;9.77;;
27612;SDS011;15036;48.094;-1.690;2023-06-01T10:46:00;11.05;;;8.23;;
27612;SDS011;15036;48.094;-1.690;2023-06-01T10:51:18;12.40;;;9.10;;
27612;SDS011;15036;48.094;-1.690;2023-06-01T10:53:45;12.75;;;9.20;;
27612;SDS011;15036;48.094;-1.690;2023-06-01T10:58:41;11.38;;;8.93;;
27612;SDS011;15036;48.094;-1.690;2023-06-01T11:01:07;13.15;;;9.90;;
27612;SDS011;15036;48.094;-1.690;2023-06-01T11:03:45;12.57;;;8.90;;
27612;SDS011;15036;48.094;-1.690;2023-06-01T11:09:10;12.68;;;9.52;;
27612;SDS011;15036;48.094;-1.690;2023-06-01T11:14:18;12.68;;;8.68;;
27612;SDS011;15036;48.094;-1.690;2023-06-01T11:16:45;13.90;;;8.38;;
27612;SDS011;15036;48.094;-1.690;2023-06-01T11:19:10;12.55;;;8.57;;
27612;SDS011;15036;48.094;-1.690;2023-06-01T11:21:51;14.02;;;9.65;;
27612;SDS011;15036;48.094;-1.690;2023-06-01T11:24:32;12.85;;;9.10;;
27612;SDS011;15036;48.094;-1.690;2023-06-01T11:26:59;10.88;;;8.95;;
27612;SDS011;15036;48.094;-1.690;2023-06-01T11:29:29;11.10;;;8.05;;
27612;SDS011;15036;48.094;-1.690;2023-06-01T11:31:56;12.32;;;8.25;;
27612;SDS011;15036;48.094;-1.690;2023-06-01T11:34:32;10.95;;;6.78;;
27612;SDS011;15036;48.094;-1.690;2023-06-01T11:37:12;11.65;;;7.07;;
27612;SDS011;15036;48.094;-1.690;2023-06-01T11:39:39;11.02;;;7.13;;
27612;SDS011;15036;48.094;-1.690;2023-06-01T11:44:35;10.77;;;7.37;;
27612;SDS011;15036;48.094;-1.690;2023-06-01T11:47:02;14.15;;;7.07;;
27612;SDS011;15036;48.094;-1.690;2023-06-01T11:49:29;11.07;;;7.30;;
27612;SDS011;15036;48.094;-1.690;2023-06-01T11:51:55;11.30;;;6.90;;
27612;SDS011;15036;48.094;-1.690;2023-06-01T11:54:23;10.48;;;7.32;;
27612;SDS011;15036;48.094;-1.690;2023-06-01T11:59:19;12.40;;;7.55;;
27612;SDS011;15036;48.094;-1.690;2023-06-01T12:01:46;10.20;;;6.90;;
27612;SDS011;15036;48.094;-1.690;2023-06-01T12:04:17;15.95;;;7.35;;
27612;SDS011;15036;48.094;-1.690;2023-06-01T12:06:45;11.75;;;6.60;;
27612;SDS011;15036;48.094;-1.690;2023-06-01T12:09:11;9.30;;;6.68;;
27612;SDS011;15036;48.094;-1.690;2023-06-01T12:11:40;11.63;;;7.28;;
27612;SDS011;15036;48.094;-1.690;2023-06-01T12:14:08;9.35;;;7.05;;
27612;SDS011;15036;48.094;-1.690;2023-06-01T12:16:50;12.05;;;7.47;;
27612;SDS011;15036;48.094;-1.690;2023-06-01T12:19:30;9.70;;;6.90;;
27612;SDS011;15036;48.094;-1.690;2023-06-01T12:21:57;11.18;;;7.10;;
27612;SDS011;15036;48.094;-1.690;2023-06-01T12:24:32;11.60;;;6.70;;
27612;SDS011;15036;48.094;-1.690;2023-06-01T12:26:59;7.70;;;6.28;;
27612;SDS011;15036;48.094;-1.690;2023-06-01T12:29:38;13.10;;;6.03;;
27612;SDS011;15036;48.094;-1.690;2023-06-01T12:32:06;9.70;;;5.90;;
27612;SDS011;15036;48.094;-1.690;2023-06-01T12:34:33;6.93;;;5.55;;
27612;SDS011;15036;48.094;-1.690;2023-06-01T12:37:09;8.13;;;5.88;;
27612;SDS011;15036;48.094;-1.690;2023-06-01T12:39:36;8.45;;;5.70;;
27612;SDS011;15036;48.094;-1.690;2023-06-01T12:42:06;8.38;;;5.95;;
27612;SDS011;15036;48.094;-1.690;2023-06-01T12:44:32;9.23;;;6.07;;
27612;SDS011;15036;48.094;-1.690;2023-06-01T12:46:58;9.30;;;6.07;;
27612;SDS011;15036;48.094;-1.690;2023-06-01T12:49:24;8.60;;;5.70;;
27612;SDS011;15036;48.094;-1.690;2023-06-01T12:51:49;7.57;;;5.93;;
27612;SDS011;15036;48.094;-1.690;2023-06-01T12:54:15;8.00;;;6.50;;
27612;SDS011;15036;48.094;-1.690;2023-06-01T12:56:42;9.52;;;5.75;;
27612;SDS011;15036;48.094;-1.690;2023-06-01T12:59:07;10.55;;;6.35;;
27612;SDS011;15036;48.094;-1.690;2023-06-01T13:01:33;8.38;;;5.68;;
27612;SDS011;15036;48.094;-1.690;2023-06-01T13:03:59;8.00;;;5.78;;
27612;SDS011;15036;48.094;-1.690;2023-06-01T13:06:25;8.20;;;5.78;;
27612;SDS011;15036;48.094;-1.690;2023-06-01T13:08:50;7.97;;;5.85;;
27612;SDS011;15036;48.094;-1.690;2023-06-01T13:11:17;10.73;;;5.45;;
27612;SDS011;15036;48.094;-1.690;2023-06-01T13:13:42;7.20;;;4.70;;
27612;SDS011;15036;48.094;-1.690;2023-06-01T13:16:08;11.38;;;5.68;;
27612;SDS011;15036;48.094;-1.690;2023-06-01T13:18:33;10.43;;;5.70;;
27612;SDS011;15036;48.094;-1.690;2023-06-01T13:20:58;7.70;;;5.22;;
27612;SDS011;15036;48.094;-1.690;2023-06-01T13:23:24;8.85;;;5.25;;
27612;SDS011;15036;48.094;-1.690;2023-06-01T13:25:49;7.68;;;5.20;;
27612;SDS011;15036;48.094;-1.690;2023-06-01T13:28:15;9.27;;;5.25;;
27612;SDS011;15036;48.094;-1.690;2023-06-01T13:30:40;10.63;;;5.53;;
27612;SDS011;15036;48.094;-1.690;2023-06-01T13:33:06;9.88;;;5.22;;
27612;SDS011;15036;48.094;-1.690;2023-06-01T13:35:31;9.00;;;5.40;;
27612;SDS011;15036;48.094;-1.690;2023-06-01T13:37:57;8.95;;;5.40;;
27612;SDS011;15036;48.094;-1.690;2023-06-01T13:40:23;8.38;;;5.10;;
27612;SDS011;15036;48.094;-1.690;2023-06-01T13:42:49;9.20;;;4.82;;
27612;SDS011;15036;48.094;-1.690;2023-06-01T13:45:16;8.88;;;4.80;;
27612;SDS011;15036;48.094;-1.690;2023-06-01T13:47:42;9.27;;;5.15;;
27612;SDS011;15036;48.094;-1.690;2023-06-01T13:50:08;8.93;;;4.97;;
27612;SDS011;15036;48.094;-1.690;2023-06-01T13:52:33;11.18;;;5.07;;
27612;SDS011;15036;48.094;-1.690;2023-06-01T13:54:59;8.52;;;4.78;;
27612;SDS011;15036;48.094;-1.690;2023-06-01T13:57:24;7.93;;;4.55;;
27612;SDS011;15036;48.094;-1.690;2023-06-01T13:59:49;9.05;;;4.50;;
27612;SDS011;15036;48.094;-1.690;2023-06-01T14:02:15;7.00;;;4.38;;
27612;SDS011;15036;48.094;-1.690;2023-06-01T14:04:40;5.63;;;4.43;;
27612;SDS011;15036;48.094;-1.690;2023-06-01T14:07:05;6.47;;;5.05;;
27612;SDS011;15036;48.094;-1.690;2023-06-01T14:09:31;6.28;;;4.78;;
27612;SDS011;15036;48.094;-1.690;2023-06-01T14:11:56;7.30;;;4.93;;
27612;SDS011;15036;48.094;-1.690;2023-06-01T14:14:22;6.35;;;4.65;;
27612;SDS011;15036;48.094;-1.690;2023-06-01T14:16:47;7.32;;;4.57;;
27612;SDS011;15036;48.094;-1.690;2023-06-01T14:19:12;9.70;;;4.90;;
27612;SDS011;15036;48.094;-1.690;2023-06-01T14:21:38;8.80;;;5.03;;
27612;SDS011;15036;48.094;-1.690;2023-06-01T14:24:03;7.47;;;4.65;;
27612;SDS011;15036;48.094;-1.690;2023-06-01T14:26:28;6.75;;;4.43;;
27612;SDS011;15036;48.094;-1.690;2023-06-01T14:28:54;7.07;;;4.97;;
27612;SDS011;15036;48.094;-1.690;2023-06-01T14:31:20;6.38;;;4.55;;
27612;SDS011;15036;48.094;-1.690;2023-06-01T14:33:46;7.28;;;4.47;;
27612;SDS011;15036;48.094;-1.690;2023-06-01T14:36:12;7.20;;;4.75;;
27612;SDS011;15036;48.094;-1.690;2023-06-01T14:38:37;6.60;;;4.63;;
27612;SDS011;15036;48.094;-1.690;2023-06-01T14:41:03;7.20;;;4.57;;
27612;SDS011;15036;48.094;-1.690;2023-06-01T14:43:28;8.18;;;4.65;;
27612;SDS011;15036;48.094;-1.690;2023-06-01T14:45:55;8.07;;;5.03;;
27612;SDS011;15036;48.094;-1.690;2023-06-01T14:48:21;6.05;;;4.60;;
27612;SDS011;15036;48.094;-1.690;2023-06-01T14:50:47;7.70;;;5.00;;